sensor_id;sensor_type;location;lat;lon;timestamp;P1;durP1;ratioP1;P2;durP2;ratioP2
49123;SDS011;48506;48.202;16.274;2023-05-19T00:01:42;14.90;;;7.82;;
49123;SDS011;48506;48.202;16.274;2023-05-19T00:04:09;18.15;;;7.22;;
49123;SDS011;48506;48.202;16.274;2023-05-19T00:06:38;10.38;;;6.72;;
49123;SDS011;48506;48.202;16.274;2023-05-19T00:09:06;12.32;;;7.55;;
49123;SDS011;48506;48.202;16.274;2023-05-19T00:11:34;13.25;;;8.25;;
49123;SDS011;48506;48.202;16.274;2023-05-19T00:14:02;13.07;;;7.80;;
49123;SDS011;48506;48.202;16.274;2023-05-19T00:16:29;12.90;;;8.27;;
49123;SDS011;48506;48.202;16.274;2023-05-19T00:18:59;16.42;;;8.25;;
49123;SDS011;48506;48.202;16.274;2023-05-19T00:21:27;19.15;;;9.82;;
49123;SDS011;48506;48.202;16.274;2023-05-19T00:23:53;18.65;;;11.13;;
49123;SDS011;48506;48.202;16.274;2023-05-19T00:26:20;19.05;;;9.07;;
49123;SDS011;48506;48.202;16.274;2023-05-19T00:28:47;14.52;;;8.15;;
49123;SDS011;48506;48.202;16.274;2023-05-19T00:31:14;15.20;;;8.50;;
49123;SDS011;48506;48.202;16.274;2023-05-19T00:33:40;13.40;;;7.95;;
49123;SDS011;48506;48.202;16.274;2023-05-19T00:36:06;19.35;;;9.45;;
49123;SDS011;48506;48.202;16.274;2023-05-19T00:38:33;14.80;;;8.82;;
49123;SDS011;48506;48.202;16.274;2023-05-19T00:41:00;13.98;;;8.65;;
49123;SDS011;48506;48.202;16.274;2023-05-19T00:43:27;15.75;;;9.20;;
49123;SDS011;48506;48.202;16.274;2023-05-19T00:45:58;12.77;;;8.63;;
49123;SDS011;48506;48.202;16.274;2023-05-19T00:48:24;17.27;;;8.95;;
49123;SDS011;48506;48.202;16.274;2023-05-19T00:50:54;14.25;;;8.70;;
49123;SDS011;48506;48.202;16.274;2023-05-19T00:53:29;16.85;;;9.57;;
49123;SDS011;48506;48.202;16.274;2023-05-19T00:55:56;16.25;;;9.77;;
49123;SDS011;48506;48.202;16.274;2023-05-19T00:58:23;15.13;;;10.30;;
49123;SDS011;48506;48.202;16.274;2023-05-19T01:03:21;17.02;;;10.73;;
49123;SDS011;48506;48.202;16.274;2023-05-19T01:05:47;19.75;;;11.02;;
49123;SDS011;48506;48.202;16.274;2023-05-19T01:08:13;23.02;;;12.13;;
49123;SDS011;48506;48.202;16.274;2023-05-19T01:10:40;17.52;;;10.10;;
49123;SDS011;48506;48.202;16.274;2023-05-19T01:13:06;17.73;;;10.80;;
49123;SDS011;48506;48.202;16.274;2023-05-19T01:15:35;25.05;;;12.18;;
49123;SDS011;48506;48.202;16.274;2023-05-19T01:18:14;16.23;;;10.50;;
49123;SDS011;48506;48.202;16.274;2023-05-19T01:20:50;18.25;;;12.18;;
49123;SDS011;48506;48.202;16.274;2023-05-19T01:31:40;21.38;;;10.90;;
49123;SDS011;48506;48.202;16.274;2023-05-19T01:34:09;20.25;;;11.07;;
49123;SDS011;48506;48.202;16.274;2023-05-19T01:36:37;23.10;;;11.73;;
49123;SDS011;48506;48.202;16.274;2023-05-19T01:39:09;18.10;;;11.38;;
49123;SDS011;48506;48.202;16.274;2023-05-19T01:41:37;21.10;;;12.40;;
49123;SDS011;48506;48.202;16.274;2023-05-19T01:44:05;28.70;;;12.35;;
49123;SDS011;48506;48.202;16.274;2023-05-19T01:46:31;19.63;;;11.98;;
49123;SDS011;48506;48.202;16.274;2023-05-19T01:48:58;20.33;;;12.68;;
49123;SDS011;48506;48.202;16.274;2023-05-19T01:51:25;22.17;;;12.70;;
49123;SDS011;48506;48.202;16.274;2023-05-19T01:53:51;22.52;;;12.25;;
49123;SDS011;48506;48.202;16.274;2023-05-19T01:56:19;25.27;;;12.68;;
49123;SDS011;48506;48.202;16.274;2023-05-19T01:58:58;18.33;;;11.30;;
49123;SDS011;48506;48.202;16.274;2023-05-19T02:01:34;26.98;;;12.43;;
49123;SDS011;48506;48.202;16.274;2023-05-19T02:04:28;27.52;;;13.25;;
49123;SDS011;48506;48.202;16.274;2023-05-19T02:07:12;20.90;;;13.10;;
49123;SDS011;48506;48.202;16.274;2023-05-19T02:10:10;21.92;;;12.57;;
49123;SDS011;48506;48.202;16.274;2023-05-19T02:12:40;25.77;;;13.93;;
49123;SDS011;48506;48.202;16.274;2023-05-19T02:15:10;22.73;;;12.77;;
49123;SDS011;48506;48.202;16.274;2023-05-19T02:17:41;22.83;;;13.43;;
49123;SDS011;48506;48.202;16.274;2023-05-19T02:20:12;24.92;;;13.95;;
49123;SDS011;48506;48.202;16.274;2023-05-19T02:22:39;30.45;;;15.20;;
49123;SDS011;48506;48.202;16.274;2023-05-19T02:25:05;23.95;;;15.57;;
49123;SDS011;48506;48.202;16.274;2023-05-19T02:27:35;26.80;;;15.43;;
49123;SDS011;48506;48.202;16.274;2023-05-19T02:30:03;27.00;;;15.18;;
49123;SDS011;48506;48.202;16.274;2023-05-19T02:32:30;25.98;;;14.57;;
49123;SDS011;48506;48.202;16.274;2023-05-19T02:34:57;34.03;;;16.05;;
49123;SDS011;48506;48.202;16.274;2023-05-19T02:37:22;25.50;;;14.40;;
49123;SDS011;48506;48.202;16.274;2023-05-19T02:39:49;26.58;;;14.70;;
49123;SDS011;48506;48.202;16.274;2023-05-19T02:42:15;27.85;;;15.00;;
49123;SDS011;48506;48.202;16.274;2023-05-19T02:44:42;29.38;;;16.73;;
49123;SDS011;48506;48.202;16.274;2023-05-19T02:47:08;24.65;;;15.95;;
49123;SDS011;48506;48.202;16.274;2023-05-19T02:49:34;25.00;;;14.90;;
49123;SDS011;48506;48.202;16.274;2023-05-19T02:52:03;24.27;;;14.48;;
49123;SDS011;48506;48.202;16.274;2023-05-19T02:54:31;25.77;;;15.07;;
49123;SDS011;48506;48.202;16.274;2023-05-19T02:56:58;26.48;;;15.52;;
49123;SDS011;48506;48.202;16.274;2023-05-19T02:59:24;29.98;;;14.38;;
49123;SDS011;48506;48.202;16.274;2023-05-19T03:01:58;26.52;;;15.10;;
49123;SDS011;48506;48.202;16.274;2023-05-19T03:04:25;28.70;;;15.10;;
49123;SDS011;48506;48.202;16.274;2023-05-19T03:06:52;25.27;;;14.85;;
49123;SDS011;48506;48.202;16.274;2023-05-19T03:09:21;31.45;;;16.92;;
49123;SDS011;48506;48.202;16.274;2023-05-19T03:11:47;26.33;;;15.07;;
49123;SDS011;48506;48.202;16.274;2023-05-19T03:14:13;24.30;;;16.13;;
49123;SDS011;48506;48.202;16.274;2023-05-19T03:16:39;30.80;;;16.63;;
49123;SDS011;48506;48.202;16.274;2023-05-19T03:19:06;24.23;;;15.45;;
49123;SDS011;48506;48.202;16.274;2023-05-19T03:21:33;27.27;;;15.55;;
49123;SDS011;48506;48.202;16.274;2023-05-19T03:23:59;24.08;;;15.27;;
49123;SDS011;48506;48.202;16.274;2023-05-19T03:26:26;27.95;;;16.27;;
49123;SDS011;48506;48.202;16.274;2023-05-19T03:28:53;30.10;;;18.67;;
49123;SDS011;48506;48.202;16.274;2023-05-19T03:31:19;29.33;;;16.08;;
49123;SDS011;48506;48.202;16.274;2023-05-19T03:33:46;27.95;;;16.23;;
49123;SDS011;48506;48.202;16.274;2023-05-19T03:36:12;28.58;;;17.55;;
49123;SDS011;48506;48.202;16.274;2023-05-19T03:38:37;23.23;;;14.95;;
49123;SDS011;48506;48.202;16.274;2023-05-19T03:41:03;36.47;;;17.25;;
49123;SDS011;48506;48.202;16.274;2023-05-19T03:43:29;26.65;;;15.05;;
49123;SDS011;48506;48.202;16.274;2023-05-19T03:45:55;27.17;;;15.73;;
49123;SDS011;48506;48.202;16.274;2023-05-19T03:48:22;24.58;;;14.60;;
49123;SDS011;48506;48.202;16.274;2023-05-19T03:50:48;22.58;;;16.15;;
49123;SDS011;48506;48.202;16.274;2023-05-19T03:53:14;23.50;;;14.65;;
49123;SDS011;48506;48.202;16.274;2023-05-19T03:55:40;23.25;;;13.48;;
49123;SDS011;48506;48.202;16.274;2023-05-19T03:58:06;22.98;;;14.38;;
49123;SDS011;48506;48.202;16.274;2023-05-19T04:00:32;26.67;;;15.48;;
49123;SDS011;48506;48.202;16.274;2023-05-19T04:02:58;23.80;;;14.10;;
49123;SDS011;48506;48.202;16.274;2023-05-19T04:05:24;20.40;;;13.77;;
49123;SDS011;48506;48.202;16.274;2023-05-19T04:07:50;22.13;;;14.05;;
49123;SDS011;48506;48.202;16.274;2023-05-19T04:10:16;21.90;;;14.27;;
49123;SDS011;48506;48.202;16.274;2023-05-19T04:12:43;25.33;;;13.25;;
49123;SDS011;48506;48.202;16.274;2023-05-19T04:15:09;22.25;;;14.02;;
49123;SDS011;48506;48.202;16.274;2023-05-19T04:17:36;20.80;;;14.82;;
49123;SDS011;48506;48.202;16.274;2023-05-19T04:20:02;21.40;;;12.90;;
49123;SDS011;48506;48.202;16.274;2023-05-19T04:22:30;21.13;;;13.13;;
49123;SDS011;48506;48.202;16.274;2023-05-19T04:24:56;23.27;;;13.68;;
49123;SDS011;48506;48.202;16.274;2023-05-19T04:27:22;21.77;;;14.27;;
49123;SDS011;48506;48.202;16.274;2023-05-19T04:29:52;25.53;;;12.97;;
49123;SDS011;48506;48.202;16.274;2023-05-19T04:32:18;23.90;;;12.63;;
49123;SDS011;48506;48.202;16.274;2023-05-19T04:34:44;21.10;;;12.70;;
49123;SDS011;48506;48.202;16.274;2023-05-19T04:37:13;21.42;;;13.23;;
49123;SDS011;48506;48.202;16.274;2023-05-19T04:39:40;19.02;;;11.73;;
49123;SDS011;48506;48.202;16.274;2023-05-19T04:42:08;18.38;;;11.77;;
49123;SDS011;48506;48.202;16.274;2023-05-19T04:44:38;21.80;;;12.13;;
49123;SDS011;48506;48.202;16.274;2023-05-19T04:47:05;18.17;;;11.52;;
49123;SDS011;48506;48.202;16.274;2023-05-19T04:49:33;15.70;;;10.75;;
49123;SDS011;48506;48.202;16.274;2023-05-19T04:52:07;18.73;;;11.65;;
49123;SDS011;48506;48.202;16.274;2023-05-19T04:54:37;23.67;;;10.65;;
49123;SDS011;48506;48.202;16.274;2023-05-19T04:57:04;17.88;;;10.55;;
49123;SDS011;48506;48.202;16.274;2023-05-19T04:59:30;16.98;;;9.13;;
49123;SDS011;48506;48.202;16.274;2023-05-19T05:01:57;13.30;;;8.88;;
49123;SDS011;48506;48.202;16.274;2023-05-19T05:04:23;14.40;;;9.20;;
49123;SDS011;48506;48.202;16.274;2023-05-19T05:06:48;12.95;;;8.75;;
49123;SDS011;48506;48.202;16.274;2023-05-19T05:09:15;15.50;;;8.10;;
49123;SDS011;48506;48.202;16.274;2023-05-19T05:11:41;15.18;;;8.13;;
49123;SDS011;48506;48.202;16.274;2023-05-19T05:14:08;12.25;;;8.13;;
49123;SDS011;48506;48.202;16.274;2023-05-19T05:16:35;12.15;;;7.82;;
49123;SDS011;48506;48.202;16.274;2023-05-19T05:19:01;10.63;;;7.68;;
49123;SDS011;48506;48.202;16.274;2023-05-19T05:21:28;13.70;;;7.55;;
49123;SDS011;48506;48.202;16.274;2023-05-19T05:23:55;13.68;;;8.80;;
49123;SDS011;48506;48.202;16.274;2023-05-19T05:26:22;14.00;;;7.32;;
49123;SDS011;48506;48.202;16.274;2023-05-19T05:28:52;11.93;;;7.45;;
49123;SDS011;48506;48.202;16.274;2023-05-19T05:31:18;12.63;;;7.38;;
49123;SDS011;48506;48.202;16.274;2023-05-19T05:33:45;9.80;;;6.25;;
49123;SDS011;48506;48.202;16.274;2023-05-19T05:36:11;12.35;;;6.88;;
49123;SDS011;48506;48.202;16.274;2023-05-19T05:38:38;12.80;;;7.70;;
49123;SDS011;48506;48.202;16.274;2023-05-19T05:41:03;12.80;;;7.32;;
49123;SDS011;48506;48.202;16.274;2023-05-19T05:43:29;12.45;;;7.15;;
49123;SDS011;48506;48.202;16.274;2023-05-19T05:45:56;11.40;;;6.25;;
49123;SDS011;48506;48.202;16.274;2023-05-19T05:48:22;10.00;;;5.45;;
49123;SDS011;48506;48.202;16.274;2023-05-19T05:50:48;11.13;;;6.60;;
49123;SDS011;48506;48.202;16.274;2023-05-19T05:53:18;10.95;;;5.85;;
49123;SDS011;48506;48.202;16.274;2023-05-19T05:55:46;10.52;;;6.50;;
49123;SDS011;48506;48.202;16.274;2023-05-19T05:58:12;11.57;;;6.13;;
49123;SDS011;48506;48.202;16.274;2023-05-19T06:00:40;10.63;;;6.40;;
49123;SDS011;48506;48.202;16.274;2023-05-19T06:03:12;11.10;;;6.25;;
49123;SDS011;48506;48.202;16.274;2023-05-19T06:05:38;10.40;;;6.30;;
49123;SDS011;48506;48.202;16.274;2023-05-19T06:08:04;9.75;;;5.78;;
49123;SDS011;48506;48.202;16.274;2023-05-19T06:10:30;8.30;;;5.72;;
49123;SDS011;48506;48.202;16.274;2023-05-19T06:12:57;9.32;;;5.72;;
49123;SDS011;48506;48.202;16.274;2023-05-19T06:15:22;10.13;;;6.00;;
49123;SDS011;48506;48.202;16.274;2023-05-19T06:17:48;9.88;;;5.25;;
49123;SDS011;48506;48.202;16.274;2023-05-19T06:20:14;10.93;;;5.45;;
49123;SDS011;48506;48.202;16.274;2023-05-19T06:22:42;10.77;;;6.07;;
49123;SDS011;48506;48.202;16.274;2023-05-19T06:25:08;11.40;;;6.30;;
49123;SDS011;48506;48.202;16.274;2023-05-19T06:27:34;8.07;;;5.63;;
49123;SDS011;48506;48.202;16.274;2023-05-19T06:30:00;8.40;;;5.20;;
49123;SDS011;48506;48.202;16.274;2023-05-19T06:32:26;8.00;;;5.65;;
49123;SDS011;48506;48.202;16.274;2023-05-19T06:34:54;7.57;;;5.47;;
49123;SDS011;48506;48.202;16.274;2023-05-19T06:37:20;10.27;;;6.00;;
49123;SDS011;48506;48.202;16.274;2023-05-19T06:39:53;8.93;;;6.35;;
49123;SDS011;48506;48.202;16.274;2023-05-19T06:42:19;11.57;;;5.45;;
49123;SDS011;48506;48.202;16.274;2023-05-19T06:44:50;10.50;;;5.60;;
49123;SDS011;48506;48.202;16.274;2023-05-19T06:49:43;7.60;;;5.28;;
49123;SDS011;48506;48.202;16.274;2023-05-19T06:52:14;10.15;;;5.80;;
49123;SDS011;48506;48.202;16.274;2023-05-19T06:54:41;12.73;;;4.95;;
49123;SDS011;48506;48.202;16.274;2023-05-19T06:57:06;9.30;;;5.10;;
49123;SDS011;48506;48.202;16.274;2023-05-19T06:59:32;8.82;;;6.00;;
49123;SDS011;48506;48.202;16.274;2023-05-19T07:01:58;8.93;;;4.70;;
49123;SDS011;48506;48.202;16.274;2023-05-19T07:04:26;7.18;;;4.00;;
49123;SDS011;48506;48.202;16.274;2023-05-19T07:06:52;7.40;;;4.80;;
49123;SDS011;48506;48.202;16.274;2023-05-19T07:09:19;9.43;;;4.70;;
49123;SDS011;48506;48.202;16.274;2023-05-19T07:11:45;6.22;;;4.35;;
49123;SDS011;48506;48.202;16.274;2023-05-19T07:14:11;6.72;;;5.15;;
49123;SDS011;48506;48.202;16.274;2023-05-19T07:16:37;6.93;;;4.60;;
49123;SDS011;48506;48.202;16.274;2023-05-19T07:19:03;6.97;;;5.10;;
49123;SDS011;48506;48.202;16.274;2023-05-19T07:21:28;5.03;;;4.20;;
49123;SDS011;48506;48.202;16.274;2023-05-19T07:23:55;11.82;;;4.78;;
49123;SDS011;48506;48.202;16.274;2023-05-19T07:26:24;7.75;;;5.05;;
49123;SDS011;48506;48.202;16.274;2023-05-19T07:28:50;4.30;;;3.03;;
49123;SDS011;48506;48.202;16.274;2023-05-19T07:31:19;8.75;;;5.82;;
49123;SDS011;48506;48.202;16.274;2023-05-19T07:33:45;9.95;;;6.32;;
49123;SDS011;48506;48.202;16.274;2023-05-19T07:36:11;6.90;;;4.60;;
49123;SDS011;48506;48.202;16.274;2023-05-19T07:38:37;10.32;;;5.05;;
49123;SDS011;48506;48.202;16.274;2023-05-19T07:41:03;8.73;;;5.28;;
49123;SDS011;48506;48.202;16.274;2023-05-19T07:43:29;6.90;;;4.03;;
49123;SDS011;48506;48.202;16.274;2023-05-19T07:45:55;6.43;;;4.60;;
49123;SDS011;48506;48.202;16.274;2023-05-19T07:48:22;7.28;;;5.00;;
49123;SDS011;48506;48.202;16.274;2023-05-19T07:50:50;7.32;;;5.00;;
49123;SDS011;48506;48.202;16.274;2023-05-19T07:53:17;7.43;;;5.28;;
49123;SDS011;48506;48.202;16.274;2023-05-19T07:55:44;11.18;;;5.45;;
49123;SDS011;48506;48.202;16.274;2023-05-19T07:58:11;9.38;;;5.60;;
49123;SDS011;48506;48.202;16.274;2023-05-19T08:00:37;7.10;;;5.75;;
49123;SDS011;48506;48.202;16.274;2023-05-19T08:03:03;10.40;;;5.75;;
49123;SDS011;48506;48.202;16.274;2023-05-19T08:05:29;9.13;;;6.43;;
49123;SDS011;48506;48.202;16.274;2023-05-19T08:07:55;8.40;;;6.25;;
49123;SDS011;48506;48.202;16.274;2023-05-19T08:10:22;8.88;;;5.65;;
49123;SDS011;48506;48.202;16.274;2023-05-19T08:12:48;8.57;;;5.45;;
49123;SDS011;48506;48.202;16.274;2023-05-19T08:15:13;7.88;;;5.15;;
49123;SDS011;48506;48.202;16.274;2023-05-19T08:17:40;6.82;;;5.25;;
49123;SDS011;48506;48.202;16.274;2023-05-19T08:20:07;10.45;;;5.70;;
49123;SDS011;48506;48.202;16.274;2023-05-19T08:22:34;6.97;;;5.20;;
49123;SDS011;48506;48.202;16.274;2023-05-19T08:25:01;8.75;;;4.90;;
49123;SDS011;48506;48.202;16.274;2023-05-19T08:27:30;7.80;;;4.70;;
49123;SDS011;48506;48.202;16.274;2023-05-19T08:29:56;10.65;;;4.72;;
49123;SDS011;48506;48.202;16.274;2023-05-19T08:32:23;7.28;;;5.25;;
49123;SDS011;48506;48.202;16.274;2023-05-19T08:34:49;6.13;;;4.40;;
49123;SDS011;48506;48.202;16.274;2023-05-19T08:37:16;9.25;;;5.25;;
49123;SDS011;48506;48.202;16.274;2023-05-19T08:39:43;6.68;;;4.15;;
49123;SDS011;48506;48.202;16.274;2023-05-19T08:42:09;7.63;;;4.80;;
49123;SDS011;48506;48.202;16.274;2023-05-19T08:44:36;7.25;;;4.10;;
49123;SDS011;48506;48.202;16.274;2023-05-19T08:47:04;8.57;;;4.88;;
49123;SDS011;48506;48.202;16.274;2023-05-19T08:49:39;8.93;;;4.63;;
49123;SDS011;48506;48.202;16.274;2023-05-19T08:54:59;5.88;;;4.43;;
49123;SDS011;48506;48.202;16.274;2023-05-19T08:57:31;8.70;;;5.82;;
49123;SDS011;48506;48.202;16.274;2023-05-19T08:59:58;11.82;;;6.30;;
49123;SDS011;48506;48.202;16.274;2023-05-19T09:02:25;8.63;;;5.80;;
49123;SDS011;48506;48.202;16.274;2023-05-19T09:04:52;7.13;;;5.40;;
49123;SDS011;48506;48.202;16.274;2023-05-19T09:07:19;9.82;;;5.35;;
49123;SDS011;48506;48.202;16.274;2023-05-19T09:09:47;6.63;;;5.35;;
49123;SDS011;48506;48.202;16.274;2023-05-19T09:12:13;10.35;;;5.43;;
49123;SDS011;48506;48.202;16.274;2023-05-19T09:14:39;11.77;;;5.53;;
49123;SDS011;48506;48.202;16.274;2023-05-19T09:17:05;7.38;;;5.97;;
49123;SDS011;48506;48.202;16.274;2023-05-19T09:19:33;6.10;;;4.38;;
49123;SDS011;48506;48.202;16.274;2023-05-19T09:21:59;6.97;;;5.60;;
49123;SDS011;48506;48.202;16.274;2023-05-19T09:24:27;8.63;;;5.72;;
49123;SDS011;48506;48.202;16.274;2023-05-19T09:26:54;8.63;;;6.32;;
49123;SDS011;48506;48.202;16.274;2023-05-19T09:29:23;10.60;;;6.50;;
49123;SDS011;48506;48.202;16.274;2023-05-19T09:31:53;7.30;;;5.70;;
49123;SDS011;48506;48.202;16.274;2023-05-19T09:34:24;9.32;;;6.00;;
49123;SDS011;48506;48.202;16.274;2023-05-19T09:36:51;8.50;;;6.13;;
49123;SDS011;48506;48.202;16.274;2023-05-19T09:39:21;8.30;;;5.03;;
49123;SDS011;48506;48.202;16.274;2023-05-19T09:41:51;7.97;;;5.60;;
49123;SDS011;48506;48.202;16.274;2023-05-19T09:46:52;7.47;;;5.70;;
49123;SDS011;48506;48.202;16.274;2023-05-19T09:49:22;8.85;;;5.35;;
49123;SDS011;48506;48.202;16.274;2023-05-19T09:51:53;8.88;;;6.18;;
49123;SDS011;48506;48.202;16.274;2023-05-19T09:54:21;7.72;;;5.55;;
49123;SDS011;48506;48.202;16.274;2023-05-19T09:56:57;8.75;;;5.60;;
49123;SDS011;48506;48.202;16.274;2023-05-19T09:59:25;6.57;;;4.80;;
49123;SDS011;48506;48.202;16.274;2023-05-19T10:01:54;7.75;;;5.60;;
49123;SDS011;48506;48.202;16.274;2023-05-19T10:04:25;8.77;;;5.05;;
49123;SDS011;48506;48.202;16.274;2023-05-19T10:06:54;12.65;;;5.35;;
49123;SDS011;48506;48.202;16.274;2023-05-19T10:09:24;7.95;;;5.82;;
49123;SDS011;48506;48.202;16.274;2023-05-19T10:11:51;10.52;;;6.32;;
49123;SDS011;48506;48.202;16.274;2023-05-19T10:14:21;5.15;;;4.65;;
49123;SDS011;48506;48.202;16.274;2023-05-19T10:16:52;8.75;;;5.50;;
49123;SDS011;48506;48.202;16.274;2023-05-19T10:19:19;8.30;;;5.40;;
49123;SDS011;48506;48.202;16.274;2023-05-19T10:21:48;9.35;;;5.05;;
49123;SDS011;48506;48.202;16.274;2023-05-19T10:24:15;7.28;;;4.90;;
49123;SDS011;48506;48.202;16.274;2023-05-19T10:26:52;10.02;;;5.63;;
49123;SDS011;48506;48.202;16.274;2023-05-19T10:29:30;8.25;;;5.40;;
49123;SDS011;48506;48.202;16.274;2023-05-19T10:32:01;5.93;;;5.07;;
49123;SDS011;48506;48.202;16.274;2023-05-19T10:34:47;7.03;;;5.20;;
49123;SDS011;48506;48.202;16.274;2023-05-19T10:40:17;16.38;;;5.68;;
49123;SDS011;48506;48.202;16.274;2023-05-19T10:45:29;8.68;;;4.75;;
49123;SDS011;48506;48.202;16.274;2023-05-19T10:48:00;8.38;;;5.20;;
49123;SDS011;48506;48.202;16.274;2023-05-19T10:50:26;6.30;;;4.60;;
49123;SDS011;48506;48.202;16.274;2023-05-19T10:53:02;6.25;;;4.75;;
49123;SDS011;48506;48.202;16.274;2023-05-19T10:58:38;6.72;;;4.47;;
49123;SDS011;48506;48.202;16.274;2023-05-19T11:01:14;4.82;;;4.30;;
49123;SDS011;48506;48.202;16.274;2023-05-19T11:08:59;5.50;;;4.55;;
49123;SDS011;48506;48.202;16.274;2023-05-19T11:14:10;3.88;;;3.47;;
49123;SDS011;48506;48.202;16.274;2023-05-19T11:16:39;7.68;;;3.30;;
49123;SDS011;48506;48.202;16.274;2023-05-19T11:19:16;4.65;;;3.58;;
49123;SDS011;48506;48.202;16.274;2023-05-19T11:21:56;7.13;;;3.00;;
49123;SDS011;48506;48.202;16.274;2023-05-19T11:32:31;5.03;;;3.58;;
49123;SDS011;48506;48.202;16.274;2023-05-19T11:34:58;5.72;;;3.70;;
49123;SDS011;48506;48.202;16.274;2023-05-19T11:37:25;4.78;;;3.38;;
49123;SDS011;48506;48.202;16.274;2023-05-19T11:39:53;5.82;;;3.63;;
49123;SDS011;48506;48.202;16.274;2023-05-19T11:42:19;4.03;;;3.47;;
49123;SDS011;48506;48.202;16.274;2023-05-19T11:44:45;4.15;;;3.28;;
49123;SDS011;48506;48.202;16.274;2023-05-19T11:47:11;3.63;;;2.78;;
49123;SDS011;48506;48.202;16.274;2023-05-19T11:49:42;3.22;;;2.25;;
49123;SDS011;48506;48.202;16.274;2023-05-19T11:52:21;3.30;;;2.65;;
49123;SDS011;48506;48.202;16.274;2023-05-19T11:54:48;2.80;;;2.60;;
49123;SDS011;48506;48.202;16.274;2023-05-19T11:57:15;5.38;;;2.38;;
49123;SDS011;48506;48.202;16.274;2023-05-19T11:59:41;3.70;;;2.75;;
49123;SDS011;48506;48.202;16.274;2023-05-19T12:02:16;3.95;;;2.90;;
49123;SDS011;48506;48.202;16.274;2023-05-19T12:04:47;2.67;;;2.42;;
49123;SDS011;48506;48.202;16.274;2023-05-19T12:07:21;2.60;;;2.40;;
49123;SDS011;48506;48.202;16.274;2023-05-19T12:09:49;3.33;;;2.25;;
49123;SDS011;48506;48.202;16.274;2023-05-19T12:12:17;4.28;;;2.30;;
49123;SDS011;48506;48.202;16.274;2023-05-19T12:14:50;4.63;;;2.58;;
49123;SDS011;48506;48.202;16.274;2023-05-19T12:17:19;2.63;;;2.20;;
49123;SDS011;48506;48.202;16.274;2023-05-19T12:19:48;2.20;;;2.00;;
49123;SDS011;48506;48.202;16.274;2023-05-19T12:22:15;3.33;;;2.50;;
49123;SDS011;48506;48.202;16.274;2023-05-19T12:24:42;3.05;;;2.20;;
49123;SDS011;48506;48.202;16.274;2023-05-19T12:27:09;4.65;;;2.40;;
49123;SDS011;48506;48.202;16.274;2023-05-19T12:29:38;3.67;;;2.25;;
49123;SDS011;48506;48.202;16.274;2023-05-19T12:32:06;4.35;;;2.85;;
49123;SDS011;48506;48.202;16.274;2023-05-19T12:34:34;2.92;;;2.53;;
49123;SDS011;48506;48.202;16.274;2023-05-19T12:37:02;6.63;;;2.70;;
49123;SDS011;48506;48.202;16.274;2023-05-19T12:39:29;4.25;;;2.53;;
49123;SDS011;48506;48.202;16.274;2023-05-19T12:42:09;3.08;;;2.67;;
49123;SDS011;48506;48.202;16.274;2023-05-19T12:47:15;3.33;;;2.65;;
49123;SDS011;48506;48.202;16.274;2023-05-19T12:52:44;4.32;;;2.80;;
49123;SDS011;48506;48.202;16.274;2023-05-19T12:55:11;2.40;;;2.17;;
49123;SDS011;48506;48.202;16.274;2023-05-19T12:57:39;2.00;;;1.80;;
49123;SDS011;48506;48.202;16.274;2023-05-19T13:05:20;4.10;;;2.83;;
49123;SDS011;48506;48.202;16.274;2023-05-19T13:10:23;3.33;;;3.03;;
49123;SDS011;48506;48.202;16.274;2023-05-19T13:12:53;4.18;;;2.42;;
49123;SDS011;48506;48.202;16.274;2023-05-19T13:15:21;3.53;;;2.53;;
49123;SDS011;48506;48.202;16.274;2023-05-19T13:17:51;4.65;;;2.53;;
49123;SDS011;48506;48.202;16.274;2023-05-19T13:20:19;4.28;;;2.38;;
49123;SDS011;48506;48.202;16.274;2023-05-19T13:22:46;4.35;;;2.45;;
49123;SDS011;48506;48.202;16.274;2023-05-19T13:25:13;2.47;;;2.28;;
49123;SDS011;48506;48.202;16.274;2023-05-19T13:27:41;2.90;;;2.47;;
49123;SDS011;48506;48.202;16.274;2023-05-19T13:30:09;3.83;;;2.90;;
49123;SDS011;48506;48.202;16.274;2023-05-19T13:32:36;4.13;;;2.83;;
49123;SDS011;48506;48.202;16.274;2023-05-19T13:35:02;3.70;;;2.80;;
49123;SDS011;48506;48.202;16.274;2023-05-19T13:37:29;2.80;;;2.35;;
49123;SDS011;48506;48.202;16.274;2023-05-19T13:39:54;2.75;;;2.40;;
49123;SDS011;48506;48.202;16.274;2023-05-19T13:42:22;6.03;;;2.40;;
49123;SDS011;48506;48.202;16.274;2023-05-19T13:44:48;4.28;;;2.40;;
49123;SDS011;48506;48.202;16.274;2023-05-19T13:47:18;3.45;;;2.08;;
49123;SDS011;48506;48.202;16.274;2023-05-19T13:49:43;2.60;;;2.22;;
49123;SDS011;48506;48.202;16.274;2023-05-19T13:52:09;4.03;;;2.17;;
49123;SDS011;48506;48.202;16.274;2023-05-19T13:54:35;3.30;;;2.42;;
49123;SDS011;48506;48.202;16.274;2023-05-19T13:57:01;2.83;;;2.53;;
49123;SDS011;48506;48.202;16.274;2023-05-19T13:59:27;12.00;;;3.13;;
49123;SDS011;48506;48.202;16.274;2023-05-19T14:01:55;3.42;;;2.80;;
49123;SDS011;48506;48.202;16.274;2023-05-19T14:04:21;4.35;;;2.63;;
49123;SDS011;48506;48.202;16.274;2023-05-19T14:06:48;2.65;;;2.45;;
49123;SDS011;48506;48.202;16.274;2023-05-19T14:09:15;3.55;;;2.47;;
49123;SDS011;48506;48.202;16.274;2023-05-19T14:11:41;6.10;;;2.90;;
49123;SDS011;48506;48.202;16.274;2023-05-19T14:14:08;3.08;;;2.10;;
49123;SDS011;48506;48.202;16.274;2023-05-19T14:16:34;2.92;;;2.58;;
49123;SDS011;48506;48.202;16.274;2023-05-19T14:19:00;4.63;;;2.45;;
49123;SDS011;48506;48.202;16.274;2023-05-19T14:21:26;3.67;;;3.08;;
49123;SDS011;48506;48.202;16.274;2023-05-19T14:23:52;3.17;;;2.78;;
49123;SDS011;48506;48.202;16.274;2023-05-19T14:26:18;3.22;;;2.75;;
49123;SDS011;48506;48.202;16.274;2023-05-19T14:28:46;5.60;;;2.70;;
49123;SDS011;48506;48.202;16.274;2023-05-19T14:31:11;2.78;;;2.22;;
49123;SDS011;48506;48.202;16.274;2023-05-19T14:33:38;3.00;;;2.70;;
49123;SDS011;48506;48.202;16.274;2023-05-19T14:36:08;3.10;;;2.80;;
49123;SDS011;48506;48.202;16.274;2023-05-19T14:38:34;3.10;;;2.60;;
49123;SDS011;48506;48.202;16.274;2023-05-19T14:41:01;3.80;;;3.05;;
49123;SDS011;48506;48.202;16.274;2023-05-19T14:43:27;3.60;;;2.95;;
49123;SDS011;48506;48.202;16.274;2023-05-19T14:45:53;3.95;;;3.42;;
49123;SDS011;48506;48.202;16.274;2023-05-19T14:48:20;4.45;;;4.05;;
49123;SDS011;48506;48.202;16.274;2023-05-19T14:50:46;4.40;;;3.97;;
49123;SDS011;48506;48.202;16.274;2023-05-19T14:53:13;5.10;;;4.18;;
49123;SDS011;48506;48.202;16.274;2023-05-19T14:55:41;5.07;;;4.20;;
49123;SDS011;48506;48.202;16.274;2023-05-19T14:58:08;5.82;;;4.22;;
49123;SDS011;48506;48.202;16.274;2023-05-19T15:00:34;4.50;;;4.05;;
49123;SDS011;48506;48.202;16.274;2023-05-19T15:03:00;6.82;;;4.28;;
49123;SDS011;48506;48.202;16.274;2023-05-19T15:05:26;4.45;;;4.05;;
49123;SDS011;48506;48.202;16.274;2023-05-19T15:07:52;4.88;;;4.30;;
49123;SDS011;48506;48.202;16.274;2023-05-19T15:10:18;5.43;;;4.38;;
49123;SDS011;48506;48.202;16.274;2023-05-19T15:12:45;5.30;;;4.80;;
49123;SDS011;48506;48.202;16.274;2023-05-19T15:15:11;6.57;;;4.40;;
49123;SDS011;48506;48.202;16.274;2023-05-19T15:17:37;5.78;;;4.40;;
49123;SDS011;48506;48.202;16.274;2023-05-19T15:20:03;6.90;;;4.53;;
49123;SDS011;48506;48.202;16.274;2023-05-19T15:22:29;6.72;;;5.30;;
49123;SDS011;48506;48.202;16.274;2023-05-19T15:24:55;9.23;;;5.50;;
49123;SDS011;48506;48.202;16.274;2023-05-19T15:27:21;7.30;;;5.82;;